Terminal Aerodrome Forecast
Issued by NWS Wilmington, OH

Current Version | Previous Version | Text Only | Print | Product List | Glossary Off
Versions: 1 2 3 4 5 6 7 8 9 10 11 12 13 14 15 16 17 18 19 20 21 22 23 24 25 26

000
FTUS41 KILN 271038 AAC
TAFILN
TAF AMD
KILN 271038Z 2711/2806 00000KT 5SM BR VCSH SCT040 BKN100
      TEMPO 2711/2712 2SM -RA BR BKN035 OVC080
     FM271400 12005KT P6SM VCSH SCT025 BKN150
     FM271800 06005KT P6SM SCT030 BKN150
     FM280000 05003KT 5SM BR FEW030=

USA.gov is the U.S. government's official web portal to all federal, state and local government web resources and services.